M I D A S
Marine Information and Data Acquisition System
Tripno 1760 of the Zeeleeuw from 2009-06-19 06:15:55 to 2009-06-19 16:13:22
Back to CruiseResearch ActivitiesStationsMapUnderway DataData graphs

EquipmentUnitsComment
TimeDGPSUTC
LatitudeDGPSDM.mWGS84
LongitudeDGPSDM.mWGS84
HeadingGyrodeg 
SOGDGPSknotsSpeed over ground
COGDGPSdegCourse over ground
DepthEcho soundermeters200 kHz
Missing or incorrect values are displayed as -999
Navigation data collected by the RV Zeeleeuw from 2009-06-19 06:19:04 to 2009-06-19 16:24:32
Time Latitude Longitude Heading SOG COG Depth
2009-06-19 06:20:13 51°13.681 2°55.885 110.4 3.3 290 -999
2009-06-19 06:21:13 51°13.691 2°55.803 91.2 3.1 272 -999
2009-06-19 06:22:12 51°13.691 2°55.75 78.2 1 50 13.6
2009-06-19 06:23:10 51°13.699 2°55.765 19.1 1 191 13.8
2009-06-19 06:24:11 51°13.723 2°55.75 329.5 4.5 329 13
2009-06-19 06:25:09 51°13.817 2°55.649 328.7 8.4 328 11.4
2009-06-19 06:26:09 51°13.955 2°55.537 336.8 10.1 335 11.7
2009-06-19 06:27:09 51°14.118 2°55.423 338.1 11 336 11.4
2009-06-19 06:28:09 51°14.268 2°55.256 321.1 11 318 11.7
2009-06-19 06:29:08 51°14.403 2°55.068 322.3 10.9 324 11.5
2009-06-19 06:30:08 51°14.547 2°54.893 326.5 10.8 329 11
2009-06-19 06:31:08 51°14.695 2°54.733 315.1 10.7 310 10.9
2009-06-19 06:32:09 51°14.77 2°54.478 285 10.7 284 11.3
2009-06-19 06:33:09 51°14.805 2°54.2 283.8 10.7 284 11.3
2009-06-19 06:34:09 51°14.852 2°53.924 287.9 10.8 287 10.8
2009-06-19 06:35:09 51°14.906 2°53.652 290 10.7 289 10.9
2009-06-19 06:36:08 51°14.962 2°53.387 290.3 10.5 289 11.1
2009-06-19 06:37:09 51°15.021 2°53.115 289.7 10.8 290 11.4
2009-06-19 06:38:09 51°15.08 2°52.845 289.8 10.7 289 12
2009-06-19 06:39:09 51°15.135 2°52.577 289.8 10.7 289 12
2009-06-19 06:40:09 51°15.194 2°52.308 290.5 10.8 289 12.5
2009-06-19 06:41:09 51°15.252 2°52.04 290.2 10.9 289 13
2009-06-19 06:42:09 51°15.312 2°51.771 290.5 10.7 290 13.5
2009-06-19 06:43:09 51°15.372 2°51.506 290.4 10.6 289 13.9
2009-06-19 06:44:09 51°15.415 2°51.235 283.2 10.2 281 14.3
2009-06-19 06:45:09 51°15.454 2°50.964 282.4 10.6 282 14.1
2009-06-19 06:46:09 51°15.491 2°50.69 282.6 10.6 282 14.3
2009-06-19 06:47:08 51°15.531 2°50.42 284.8 10.7 284 14.3
2009-06-19 06:48:08 51°15.57 2°50.147 283.8 10.3 282 14.3
2009-06-19 06:49:09 51°15.608 2°49.871 284.5 10.5 283 14.7
2009-06-19 06:50:09 51°15.647 2°49.602 285.2 10.3 284 14.4
2009-06-19 06:51:09 51°15.685 2°49.333 284.9 10.5 284 12.8
2009-06-19 06:52:09 51°15.722 2°49.063 283.8 10.3 282 12.2
2009-06-19 06:53:09 51°15.758 2°48.794 283.9 10.4 281 12.7
2009-06-19 06:54:09 51°15.794 2°48.528 284.5 10.4 282 13.9
2009-06-19 06:55:09 51°15.835 2°48.26 284.4 10.5 284 14.8
2009-06-19 06:56:09 51°15.876 2°47.988 284.6 10.6 284 16
2009-06-19 06:57:10 51°15.917 2°47.712 284.5 10.3 283 16.9
2009-06-19 06:58:09 51°15.955 2°47.45 284.4 10.2 283 17.6
2009-06-19 06:59:09 51°15.996 2°47.186 284.7 10.4 284 18.1
2009-06-19 07:00:09 51°16.046 2°46.921 288.3 10.5 288 17.1
2009-06-19 07:01:09 51°16.098 2°46.656 287.7 10.2 287 15.5
2009-06-19 07:02:09 51°16.146 2°46.395 286.9 10.4 285 14.3
2009-06-19 07:03:09 51°16.2 2°46.137 294 10.4 294 12.4
2009-06-19 07:04:09 51°16.275 2°45.888 297.7 10.3 297 12
2009-06-19 07:05:09 51°16.357 2°45.645 303.2 10.5 304 12.5
2009-06-19 07:06:10 51°16.46 2°45.415 306.1 10.5 307 12.8
2009-06-19 07:07:09 51°16.562 2°45.198 306 10.5 306 14
2009-06-19 07:08:09 51°16.663 2°44.979 305.9 10.4 306 11.5
2009-06-19 07:09:09 51°16.764 2°44.753 305.6 10.4 305 14.7
2009-06-19 07:10:09 51°16.866 2°44.528 307.6 10.5 306 16.4
2009-06-19 07:11:09 51°16.974 2°44.311 308.9 10.6 309 17.8
2009-06-19 07:12:09 51°17.084 2°44.092 308.3 10.5 310 17.3
2009-06-19 07:13:09 51°17.195 2°43.875 308.1 10.2 309 16.9
2009-06-19 07:14:09 51°17.308 2°43.664 308.2 10.6 310 17.1
2009-06-19 07:15:09 51°17.418 2°43.45 308.3 10.4 309 15.6
2009-06-19 07:16:09 51°17.527 2°43.239 307.7 10.3 310 13.8
2009-06-19 07:17:09 51°17.636 2°43.035 308.4 9.7 311 13.9
2009-06-19 07:18:09 51°17.748 2°42.833 308.9 10.5 312 23.1
2009-06-19 07:19:09 51°17.861 2°42.623 308.6 10.6 310 25.7
2009-06-19 07:20:10 51°17.976 2°42.4 307.6 10.9 308 25.9
2009-06-19 07:21:09 51°18.084 2°42.185 307.9 10.7 309 26.1
2009-06-19 07:22:09 51°18.195 2°41.962 309.1 10.7 310 25.1
2009-06-19 07:23:09 51°18.306 2°41.745 308.5 10.6 308 25
2009-06-19 07:24:09 51°18.416 2°41.533 308.5 10.3 310 23.2
2009-06-19 07:25:09 51°18.527 2°41.321 309.1 10.4 310 21.6
2009-06-19 07:26:09 51°18.639 2°41.107 308 10.6 311 20.5
2009-06-19 07:27:10 51°18.753 2°40.892 307.8 10.5 311 22
2009-06-19 07:28:08 51°18.864 2°40.688 307.9 10.5 310 19.4
2009-06-19 07:29:10 51°18.983 2°40.472 308.1 10.4 311 19.8
2009-06-19 07:30:09 51°19.096 2°40.264 308.8 10.6 311 22.1
2009-06-19 07:31:08 51°19.209 2°40.054 308.4 10.6 311 24.8
2009-06-19 07:32:08 51°19.324 2°39.837 308 10.8 309 27.8
2009-06-19 07:33:10 51°19.443 2°39.611 308.5 10.7 310 31.1
2009-06-19 07:34:09 51°19.557 2°39.396 308.4 10.7 309 31.3
2009-06-19 07:35:09 51°19.671 2°39.177 308.1 10.5 309 30
2009-06-19 07:36:09 51°19.784 2°38.957 307.7 10.7 309 27.8
2009-06-19 07:37:09 51°19.899 2°38.741 309 10.8 311 26.2
2009-06-19 07:38:09 51°20.013 2°38.521 307.9 10.4 310 25.1
2009-06-19 07:39:09 51°20.124 2°38.306 308 10.3 309 26.1
2009-06-19 07:40:09 51°20.234 2°38.092 307.8 10.6 309 25.3
2009-06-19 07:41:09 51°20.346 2°37.877 308.4 10.4 310 23.7
2009-06-19 07:42:09 51°20.457 2°37.67 308.4 10.5 309 25.4
2009-06-19 07:43:09 51°20.569 2°37.457 308.5 10.6 310 25.2
2009-06-19 07:44:08 51°20.68 2°37.247 308.3 10.6 311 25.2
2009-06-19 07:45:10 51°20.799 2°37.028 308.6 10.6 311 24.7
2009-06-19 07:46:09 51°20.914 2°36.824 312.9 10.4 317 24.9
2009-06-19 07:47:10 51°21.043 2°36.636 314.8 10.5 318 27.6
2009-06-19 07:48:09 51°21.18 2°36.47 320.9 10.5 327 28.7
2009-06-19 07:49:09 51°21.327 2°36.309 321.2 10.9 325 30.7
2009-06-19 07:50:09 51°21.474 2°36.15 321.3 10.4 323 33.5
2009-06-19 07:51:09 51°21.62 2°35.987 320.2 10.8 323 32.9
2009-06-19 07:52:10 51°21.774 2°35.822 324.8 11 330 33.1
2009-06-19 07:53:09 51°21.937 2°35.694 330.9 10.8 333 31.5
2009-06-19 07:54:10 51°22.102 2°35.57 330.3 10.6 332 31.2
2009-06-19 07:55:09 51°22.258 2°35.451 331.2 10.8 332 29.6
2009-06-19 07:56:10 51°22.423 2°35.323 330.9 10.7 335 29.6
2009-06-19 07:57:10 51°22.581 2°35.196 330.2 10.7 335 25.5
2009-06-19 07:58:10 51°22.741 2°35.071 331.1 10.7 334 23.7
2009-06-19 07:59:09 51°22.899 2°34.944 330.6 11 332 29.3
2009-06-19 08:00:09 51°23.062 2°34.814 330.5 10.6 334 35.4
2009-06-19 08:01:10 51°23.23 2°34.684 332.3 11.1 336 33.7
2009-06-19 08:02:09 51°23.393 2°34.577 335.3 11.1 339 34.6
2009-06-19 08:03:09 51°23.566 2°34.467 334.1 11.2 337 34.8
2009-06-19 08:04:09 51°23.736 2°34.357 334.2 11.1 339 35.1
2009-06-19 08:05:09 51°23.907 2°34.25 333.9 10.9 336 34.5
2009-06-19 08:06:09 51°24.077 2°34.141 335.1 11 338 33.3
2009-06-19 08:07:09 51°24.25 2°34.039 336.1 10.8 337 33.1
2009-06-19 08:08:10 51°24.425 2°33.943 336.4 11.1 340 32.3
2009-06-19 08:09:10 51°24.599 2°33.855 336.6 10.7 343 33
2009-06-19 08:10:09 51°24.771 2°33.763 336.6 11.2 341 32.9
2009-06-19 08:11:09 51°24.946 2°33.668 336.2 11.1 342 30.8
2009-06-19 08:12:09 51°25.123 2°33.576 336.4 11.1 342 23.9
2009-06-19 08:13:10 51°25.299 2°33.486 335.4 10.8 340 24.3
2009-06-19 08:14:09 51°25.466 2°33.398 337.2 10.7 341 23.5
2009-06-19 08:15:10 51°25.64 2°33.303 337.1 10.9 341 25.3
2009-06-19 08:16:09 51°25.811 2°33.207 335.5 11.1 340 31.3
2009-06-19 08:17:09 51°25.988 2°33.109 337.6 11.4 341 34.4
2009-06-19 08:18:10 51°26.167 2°33.011 336.9 11.1 342 34.7
2009-06-19 08:19:09 51°26.338 2°32.917 337 11.1 342 35
2009-06-19 08:20:09 51°26.514 2°32.811 332.7 11.4 340 34.9
2009-06-19 08:21:09 51°26.689 2°32.694 332.7 11.3 338 34.9
2009-06-19 08:22:10 51°26.862 2°32.58 333.9 10.9 335 34.8
2009-06-19 08:23:10 51°27.034 2°32.476 333.8 11.1 339 34.9
2009-06-19 08:24:10 51°27.209 2°32.368 334 11.3 341 35.2
2009-06-19 08:25:10 51°27.381 2°32.258 331.8 11.3 334 35.7
2009-06-19 08:26:10 51°27.554 2°32.145 333.3 11.1 340 34.2
2009-06-19 08:27:09 51°27.719 2°32.034 333.8 10.7 337 24.4
2009-06-19 08:28:09 51°27.885 2°31.931 333.5 10.6 339 14.6
2009-06-19 08:29:10 51°28.05 2°31.833 333.9 10.3 341 13.8
2009-06-19 08:30:09 51°28.21 2°31.739 331.6 10.4 339 22.4
2009-06-19 08:31:10 51°28.377 2°31.638 333.4 10.8 341 25.8
2009-06-19 08:32:09 51°28.547 2°31.533 333.2 11.4 342 29.3
2009-06-19 08:33:10 51°28.721 2°31.419 334 11 341 31
2009-06-19 08:34:10 51°28.892 2°31.306 332.5 11.1 338 33.9
2009-06-19 08:35:09 51°29.063 2°31.199 334 11.2 338 35.9
2009-06-19 08:36:09 51°29.236 2°31.09 333.6 11.1 337 36.5
2009-06-19 08:37:09 51°29.408 2°30.978 334.6 11.1 339 36.5
2009-06-19 08:38:10 51°29.585 2°30.863 333.7 11.5 338 37.8
2009-06-19 08:39:10 51°29.76 2°30.753 332 11.1 341 -999
2009-06-19 08:40:10 51°29.935 2°30.647 333.5 11.4 337 38.8
2009-06-19 08:41:09 51°30.106 2°30.536 333.8 11.3 339 39.5
2009-06-19 08:42:10 51°30.284 2°30.417 332.5 11.4 335 38.3
2009-06-19 08:43:09 51°30.456 2°30.306 333 11.3 336 36.6
2009-06-19 08:44:10 51°30.631 2°30.188 332.3 11.1 337 36.2
2009-06-19 08:45:09 51°30.8 2°30.074 333.8 11.4 338 30.8
2009-06-19 08:46:09 51°30.972 2°29.963 333.5 11.2 341 22.3
2009-06-19 08:47:10 51°31.149 2°29.848 333.2 11.3 339 21.7
2009-06-19 08:48:10 51°31.319 2°29.738 333.1 11.1 342 21.5
2009-06-19 08:49:10 51°31.491 2°29.626 333.2 11.3 337 23.3
2009-06-19 08:50:10 51°31.663 2°29.519 333.2 11.1 337 22.8
2009-06-19 08:51:10 51°31.836 2°29.404 332.5 11.3 336 23.8
2009-06-19 08:52:09 51°32.006 2°29.291 333.7 11.4 338 29.7
2009-06-19 08:53:10 51°32.184 2°29.178 334.6 11.3 343 33.9
2009-06-19 08:54:10 51°32.36 2°29.066 334 11.4 339 36.6
2009-06-19 08:55:10 51°32.537 2°28.955 332.5 11.6 338 40.7
2009-06-19 08:56:10 51°32.717 2°28.841 333.5 11.6 337 40.2
2009-06-19 08:57:09 51°32.893 2°28.733 333.9 11.6 337 39.3
2009-06-19 08:58:10 51°33.075 2°28.622 333.4 11.6 339 39.2
2009-06-19 08:59:10 51°33.255 2°28.508 332.5 11.5 338 38.7
2009-06-19 09:00:09 51°33.43 2°28.399 333.5 11.5 340 38.1
2009-06-19 09:01:10 51°33.611 2°28.282 332.6 11.4 335 39
2009-06-19 09:02:10 51°33.791 2°28.169 332.5 11.5 338 39.2
2009-06-19 09:03:10 51°33.97 2°28.057 333 11.5 338 37.4
2009-06-19 09:04:10 51°34.148 2°27.941 332.5 11.6 336 38.5
2009-06-19 09:05:10 51°34.326 2°27.828 333.1 11.5 337 39.4
2009-06-19 09:06:09 51°34.498 2°27.713 333.1 11.5 337 38
2009-06-19 09:07:09 51°34.675 2°27.593 333 11.4 338 36.9
2009-06-19 09:08:10 51°34.856 2°27.478 333.6 11.4 336 36.3
2009-06-19 09:09:10 51°35.034 2°27.367 334.4 11.5 337 36.6
2009-06-19 09:10:10 51°35.213 2°27.253 333.2 11.5 339 36.3
2009-06-19 09:11:10 51°35.392 2°27.141 334 11.8 339 37.7
2009-06-19 09:12:10 51°35.572 2°27.03 334 11.8 339 38.1
2009-06-19 09:13:10 51°35.747 2°26.898 327.7 11.7 335 39
2009-06-19 09:14:10 51°35.919 2°26.76 326.7 11.4 332 39.4
2009-06-19 09:15:10 51°36.089 2°26.626 327.3 11.3 335 38.7
2009-06-19 09:16:10 51°36.259 2°26.49 328.9 11.6 333 37.2
2009-06-19 09:17:09 51°36.429 2°26.353 328.1 11.5 333 39.5
2009-06-19 09:18:10 51°36.609 2°26.226 334.4 11.7 339 39.3
2009-06-19 09:19:10 51°36.79 2°26.115 333.9 11.8 341 39.3
2009-06-19 09:20:09 51°36.97 2°26.004 335.8 11.7 341 38.6
2009-06-19 09:21:10 51°37.155 2°25.89 334.3 11.8 341 40.1
2009-06-19 09:22:10 51°37.335 2°25.777 333.4 11.7 339 39.3
2009-06-19 09:23:10 51°37.514 2°25.665 333.4 11.7 338 36.4
2009-06-19 09:24:10 51°37.695 2°25.551 333.8 11.6 338 38.8
2009-06-19 09:25:10 51°37.876 2°25.437 332.9 11.8 337 39
2009-06-19 09:26:09 51°38.055 2°25.322 332.7 11.8 337 37.2
2009-06-19 09:27:10 51°38.239 2°25.206 333.2 11.8 338 35.5
2009-06-19 09:28:10 51°38.405 2°25.06 313.4 11 318 38.2
2009-06-19 09:29:09 51°38.504 2°24.832 286.8 10.3 286 38.5
2009-06-19 09:30:10 51°38.529 2°24.554 270.6 10.2 273 37.4
2009-06-19 09:31:10 51°38.54 2°24.278 269.4 10.5 274 35.2
2009-06-19 09:32:10 51°38.574 2°24.002 280.6 10.7 286 35.3
2009-06-19 09:33:10 51°38.624 2°23.73 284.9 10.6 288 38.1
2009-06-19 09:34:10 51°38.685 2°23.461 286.1 10.6 291 38.5
2009-06-19 09:35:10 51°38.748 2°23.194 286.8 10.6 290 39.7
2009-06-19 09:36:09 51°38.81 2°22.934 285.8 10.5 290 40.4
2009-06-19 09:37:10 51°38.873 2°22.664 284.8 10.5 290 41.2
2009-06-19 09:38:10 51°38.926 2°22.444 280.5 6.3 288 39.7
2009-06-19 09:39:10 51°38.934 2°22.337 258 2.4 264 41
2009-06-19 09:40:10 51°38.906 2°22.324 190.7 3 165 41.5
2009-06-19 09:41:10 51°38.853 2°22.33 208.7 2.9 194 41.7
2009-06-19 09:42:10 51°38.821 2°22.29 241.3 2.4 244 41.6
2009-06-19 09:43:10 51°38.82 2°22.227 269.4 2.7 290 42.3
2009-06-19 09:44:10 51°38.854 2°22.161 293.3 3.5 315 42
2009-06-19 09:45:10 51°38.895 2°22.086 289 3.7 308 42
2009-06-19 09:46:10 51°38.938 2°22.003 294.1 4.4 312 42.6
2009-06-19 09:47:10 51°38.996 2°21.912 304.3 5.2 321 43.6
2009-06-19 09:48:10 51°39.065 2°21.834 308.6 5 326 43.6
2009-06-19 09:49:10 51°39.14 2°21.769 323.5 5.2 342 43.1
2009-06-19 09:50:10 51°39.221 2°21.749 340.1 5.1 359 42.6
2009-06-19 09:51:10 51°39.306 2°21.766 355.3 5.2 13 43.3
2009-06-19 09:52:10 51°39.388 2°21.794 354.9 5 13 44
2009-06-19 09:53:10 51°39.467 2°21.824 354.9 4.8 13 43.7
2009-06-19 09:54:09 51°39.544 2°21.848 352.3 4.9 10 41.9
2009-06-19 09:55:10 51°39.624 2°21.868 350.9 4.9 7 42.2
2009-06-19 09:56:10 51°39.705 2°21.897 359.6 5.1 14 43.3
2009-06-19 09:57:10 51°39.785 2°21.937 4 5 16 40.9
2009-06-19 09:58:10 51°39.863 2°21.977 0.4 4.9 16 41.4
2009-06-19 09:59:10 51°39.942 2°22.018 5.9 5.3 21 43.2
2009-06-19 10:00:10 51°40.023 2°22.072 11.7 5.3 26 39.9
2009-06-19 10:01:10 51°40.103 2°22.127 12 5.3 24 42.2
2009-06-19 10:02:10 51°40.182 2°22.183 10.9 4.9 24 42.7
2009-06-19 10:03:09 51°40.253 2°22.234 11.4 4.6 23 41.3
2009-06-19 10:04:10 51°40.325 2°22.286 10.9 4.7 25 42.3
2009-06-19 10:05:09 51°40.394 2°22.341 17.3 4.8 31 42.3
2009-06-19 10:06:10 51°40.462 2°22.415 35.2 4.9 39 41.5
2009-06-19 10:07:10 51°40.521 2°22.506 43.1 4.9 45 40.9
2009-06-19 10:08:10 51°40.577 2°22.604 53.4 5 52 41.5
2009-06-19 10:09:10 51°40.624 2°22.713 65 5 59 41.1
2009-06-19 10:10:10 51°40.654 2°22.833 84.8 4.8 74 41.4
2009-06-19 10:11:10 51°40.668 2°22.957 98.8 4.7 82 41.4
2009-06-19 10:12:09 51°40.678 2°23.078 96.1 4.8 81 38
2009-06-19 10:13:10 51°40.691 2°23.203 97.5 4.6 80 41
2009-06-19 10:14:10 51°40.701 2°23.324 97.8 4.6 81 40.7
2009-06-19 10:15:10 51°40.706 2°23.445 107.6 4.4 90 38.7
2009-06-19 10:16:10 51°40.695 2°23.552 128.7 4 103 39.8
2009-06-19 10:17:10 51°40.681 2°23.649 127.7 3.6 102 42.2
2009-06-19 10:18:10 51°40.671 2°23.739 129 3.4 100 40.9
2009-06-19 10:19:10 51°40.657 2°23.819 146.3 2.9 113 40.6
2009-06-19 10:20:10 51°40.636 2°23.883 160.8 2.5 122 41.9
2009-06-19 10:21:10 51°40.611 2°23.928 177.4 2.2 137 41
2009-06-19 10:22:10 51°40.586 2°23.96 189.6 1.6 144 40.8
2009-06-19 10:23:10 51°40.57 2°23.981 200.5 1.2 120 41
2009-06-19 10:24:10 51°40.565 2°24.008 201.6 1.1 98 41.9
2009-06-19 10:25:10 51°40.568 2°24.037 198 1.3 90 42
2009-06-19 10:26:10 51°40.55 2°24.101 126.4 4.1 100 42.1
2009-06-19 10:27:10 51°40.59 2°24.272 64 10.4 59 41.8
2009-06-19 10:28:10 51°40.701 2°24.552 61.6 13.2 58 42.3
2009-06-19 10:29:10 51°40.822 2°24.844 56.6 12.5 52 42.2
2009-06-19 10:30:10 51°40.92 2°24.986 25.3 5.5 29 42.6
2009-06-19 10:31:10 51°40.982 2°25.026 356.5 2.8 27 41.7
2009-06-19 10:32:10 51°41.013 2°25.062 351.4 2.2 40 42.4
2009-06-19 10:33:10 51°41.038 2°25.103 350.8 2.2 46 41.8
2009-06-19 10:34:10 51°41.06 2°25.146 354.2 2.2 54 41.6
2009-06-19 10:35:10 51°41.081 2°25.189 2.5 2.1 56 43
2009-06-19 10:36:10 51°41.099 2°25.232 7.6 1.9 56 43.2
2009-06-19 10:37:10 51°41.117 2°25.274 13.3 1.9 57 41.1
2009-06-19 10:38:10 51°41.134 2°25.317 16.5 2 55 40.7
2009-06-19 10:39:10 51°41.153 2°25.362 12.4 2 50 39.8
2009-06-19 10:40:10 51°41.173 2°25.404 8.8 2 52 39.6
2009-06-19 10:41:10 51°41.196 2°25.447 7.8 2.1 49 38.3
2009-06-19 10:42:10 51°41.218 2°25.49 3.6 2.1 52 41
2009-06-19 10:43:10 51°41.238 2°25.531 1.5 1.9 55 41.6
2009-06-19 10:44:10 51°41.256 2°25.572 2.9 2 56 41.4
2009-06-19 10:45:10 51°41.276 2°25.613 6 2 54 43.2
2009-06-19 10:46:10 51°41.296 2°25.653 3.2 1.9 52 40.9
2009-06-19 10:47:10 51°41.318 2°25.694 2.9 2 45 38.7
2009-06-19 10:48:10 51°41.344 2°25.733 357.3 2.7 31 41.5
2009-06-19 10:49:10 51°41.422 2°25.791 31.6 7.5 36 43.2
2009-06-19 10:50:10 51°41.502 2°25.995 65.6 10.7 64 38.7
2009-06-19 10:51:10 51°41.587 2°26.285 72.2 12.6 64 40
2009-06-19 10:52:10 51°41.664 2°26.601 76.3 12.7 71 40
2009-06-19 10:53:10 51°41.733 2°26.925 80.8 12.8 77 40.8
2009-06-19 10:54:10 51°41.79 2°27.252 82 12.5 78 40.9
2009-06-19 10:55:10 51°41.847 2°27.579 82 12.8 73 40.9
2009-06-19 10:56:10 51°41.902 2°27.91 81.4 12.8 79 41.7
2009-06-19 10:57:10 51°41.959 2°28.235 79.5 12.4 77 39.5
2009-06-19 10:58:10 51°42.013 2°28.559 79.9 12.5 78 41.7
2009-06-19 10:59:10 51°42.068 2°28.885 81.1 12.5 75 40.9
2009-06-19 11:00:10 51°42.124 2°29.21 80.7 12.6 75 39.5
2009-06-19 11:01:10 51°42.179 2°29.536 80.6 12.7 73 38.7
2009-06-19 11:02:10 51°42.23 2°29.86 82.7 12.3 76 39.1
2009-06-19 11:03:10 51°42.282 2°30.182 80.1 12.5 71 41.1
2009-06-19 11:04:10 51°42.338 2°30.503 80.6 12.6 76 40.2
2009-06-19 11:05:10 51°42.392 2°30.824 79.1 12.5 71 38.8
2009-06-19 11:06:10 51°42.447 2°31.146 79.2 12.5 73 38
2009-06-19 11:07:10 51°42.504 2°31.467 79.3 12.6 71 38.3
2009-06-19 11:08:10 51°42.559 2°31.791 79 12.6 70 39.7
2009-06-19 11:09:10 51°42.611 2°32.114 81.3 12.5 72 41.2
2009-06-19 11:10:10 51°42.668 2°32.438 80.6 12.5 78 37.7
2009-06-19 11:11:10 51°42.722 2°32.76 81.4 12.3 80 42.1
2009-06-19 11:12:10 51°42.777 2°33.079 80.6 12.4 74 44.6
2009-06-19 11:13:10 51°42.83 2°33.402 81.5 12.3 76 43.2
2009-06-19 11:14:10 51°42.887 2°33.723 80.6 12.6 71 36.1
2009-06-19 11:15:10 51°42.914 2°34.052 91.4 12.4 86 39.5
2009-06-19 11:16:10 51°42.929 2°34.38 92.7 12.4 85 38.1
2009-06-19 11:17:10 51°42.947 2°34.706 91.5 12.2 87 38.3
2009-06-19 11:18:10 51°42.962 2°35.031 90.5 12.2 85 39.6
2009-06-19 11:19:10 51°42.978 2°35.355 91 12.3 87 38.6
2009-06-19 11:20:10 51°42.993 2°35.684 91.2 12.3 87 36.7
2009-06-19 11:21:10 51°43.005 2°36.01 93 12.1 90 36.2
2009-06-19 11:22:10 51°43.02 2°36.339 93.2 12.1 90 34.7
2009-06-19 11:23:10 51°43.035 2°36.664 90.1 12.3 85 34.3
2009-06-19 11:24:10 51°43.047 2°36.989 90.9 12 87 36.1
2009-06-19 11:25:10 51°43.062 2°37.313 89.8 12.1 87 32.3
2009-06-19 11:26:10 51°43.079 2°37.639 91.9 12.2 90 34.2
2009-06-19 11:27:10 51°43.093 2°37.967 91.5 12.5 87 36.8
2009-06-19 11:28:10 51°43.109 2°38.292 90.2 12.3 84 36.7
2009-06-19 11:29:10 51°43.123 2°38.617 93 12.1 82 38.6
2009-06-19 11:30:10 51°43.14 2°38.942 90.3 12.3 86 38.9
2009-06-19 11:31:10 51°43.157 2°39.267 91.6 12.1 86 41.8
2009-06-19 11:32:10 51°43.173 2°39.59 90.8 12.2 86 38.1
2009-06-19 11:33:10 51°43.192 2°39.914 88.9 12.1 85 44
2009-06-19 11:34:10 51°43.21 2°40.236 91.3 12.1 84 38.3
2009-06-19 11:35:10 51°43.216 2°40.559 99.1 12.1 90 40.2
2009-06-19 11:36:10 51°43.201 2°40.877 101.2 11.8 99 39.5
2009-06-19 11:37:10 51°43.186 2°41.194 101 12 94 35.8
2009-06-19 11:38:10 51°43.169 2°41.513 100.7 11.9 97 37.9
2009-06-19 11:39:10 51°43.157 2°41.798 101.7 8.1 92 40
2009-06-19 11:40:10 51°43.139 2°41.955 129.5 4.2 111 39.5
2009-06-19 11:41:10 51°43.115 2°42.016 169.9 1.8 132 39.4
2009-06-19 11:42:10 51°43.097 2°42.045 185.2 1.5 145 38.7
2009-06-19 11:43:10 51°43.06 2°42.048 206.2 2.6 201 35.4
2009-06-19 11:44:10 51°43.029 2°42.003 233.7 2.9 237 40.4
2009-06-19 11:45:10 51°43.015 2°41.927 253 3.3 264 40.7
2009-06-19 11:46:10 51°43.033 2°41.84 287 3.7 307 40.4
2009-06-19 11:47:10 51°43.082 2°41.771 307.8 4 326 39.9
2009-06-19 11:48:10 51°43.143 2°41.717 318 4.3 337 40.1
2009-06-19 11:49:10 51°43.209 2°41.671 317 4 334 40.4
2009-06-19 11:50:10 51°43.269 2°41.623 317.8 4 337 36.1
2009-06-19 11:51:10 51°43.334 2°41.588 328.7 4.2 346 39.9
2009-06-19 11:52:10 51°43.405 2°41.57 339.3 4.5 354 36.8
2009-06-19 11:53:10 51°43.478 2°41.56 341.4 4.3 355 39
2009-06-19 11:54:10 51°43.551 2°41.549 341.5 4.3 353 41.6
2009-06-19 11:55:10 51°43.623 2°41.535 341.3 4.4 356 39.6
2009-06-19 11:56:10 51°43.694 2°41.524 342.4 4.1 353 38.5
2009-06-19 11:57:10 51°43.76 2°41.519 341.8 3.7 356 39.7
2009-06-19 11:58:10 51°43.822 2°41.514 342.5 3.6 358 38
2009-06-19 11:59:10 51°43.884 2°41.512 342.4 3.6 -999 41.3
2009-06-19 12:00:10 51°43.945 2°41.512 343.9 3.6 -999 39
2009-06-19 12:01:10 51°44.006 2°41.508 340.5 3.7 356 38.2
2009-06-19 12:02:10 51°44.068 2°41.502 340.1 3.8 357 37.4
2009-06-19 12:03:10 51°44.129 2°41.498 341.4 3.7 358 33.5
2009-06-19 12:04:10 51°44.189 2°41.493 339.8 3.6 357 37.1
2009-06-19 12:05:10 51°44.25 2°41.491 341.9 3.7 359 37.2
2009-06-19 12:06:10 51°44.312 2°41.487 342.6 3.6 358 39.2
2009-06-19 12:07:10 51°44.373 2°41.486 341.7 3.8 359 38.5
2009-06-19 12:08:10 51°44.433 2°41.482 340.2 3.7 357 38.5
2009-06-19 12:09:10 51°44.494 2°41.477 340.7 3.7 359 40.6
2009-06-19 12:10:10 51°44.555 2°41.485 359.1 3.9 11 38.9
2009-06-19 12:11:10 51°44.619 2°41.509 8.4 3.9 17 37.7
2009-06-19 12:12:10 51°44.681 2°41.552 21.1 4.1 25 39.9
2009-06-19 12:13:10 51°44.739 2°41.607 36.8 4 37 38
2009-06-19 12:14:10 51°44.787 2°41.685 60.1 4.3 54 40.4
2009-06-19 12:15:10 51°44.818 2°41.791 87.5 4.3 75 39
2009-06-19 12:16:10 51°44.831 2°41.905 91.7 4.4 78 41.4
2009-06-19 12:17:10 51°44.849 2°42.019 89.4 4.3 78 35.4
2009-06-19 12:18:10 51°44.855 2°42.127 104.9 3.8 91 39.3
2009-06-19 12:19:10 51°44.845 2°42.227 120.9 3.6 104 39.7
2009-06-19 12:20:10 51°44.825 2°42.315 136.5 3.3 116 38.9
2009-06-19 12:21:10 51°44.796 2°42.384 151.3 2.7 128 37.3
2009-06-19 12:22:10 51°44.77 2°42.43 163.3 2.2 134 37.6
2009-06-19 12:23:10 51°44.744 2°42.466 167.5 1.9 144 37.8
2009-06-19 12:24:10 51°44.719 2°42.497 174.6 1.9 147 37
2009-06-19 12:25:10 51°44.697 2°42.523 181.3 1.1 130 37.6
2009-06-19 12:26:10 51°44.692 2°42.544 184 0.8 95 39.2
2009-06-19 12:27:10 51°44.681 2°42.555 210.6 1.2 197 38.2
2009-06-19 12:28:10 51°44.681 2°42.488 288.8 4.7 304 38.8
2009-06-19 12:29:10 51°44.775 2°42.332 306.3 10 313 38.1
2009-06-19 12:30:10 51°44.875 2°42.249 336.8 5.4 342 39.8
2009-06-19 12:31:10 51°44.932 2°42.203 295.3 2.8 318 37.9
2009-06-19 12:32:10 51°44.969 2°42.161 323.7 3 346 34.3
2009-06-19 12:33:10 51°45.005 2°42.165 344.6 1.7 21 38.4
2009-06-19 12:34:10 51°45.029 2°42.183 342.7 1.6 30 37.7
2009-06-19 12:35:10 51°45.049 2°42.204 336.6 1.3 43 35.6
2009-06-19 12:36:10 51°45.065 2°42.229 341.9 1.3 46 32.8
2009-06-19 12:37:10 51°45.079 2°42.256 352.6 1.2 56 35.9
2009-06-19 12:38:10 51°45.093 2°42.283 1.2 1.3 52 35.9
2009-06-19 12:39:10 51°45.104 2°42.309 7.1 1.2 55 34.8
2009-06-19 12:40:10 51°45.118 2°42.335 6.6 1.2 41 36.1
2009-06-19 12:41:10 51°45.132 2°42.359 4.9 1.2 46 37.8
2009-06-19 12:42:10 51°45.144 2°42.381 3.5 1.1 50 38.9
2009-06-19 12:43:10 51°45.155 2°42.407 3.9 1.1 52 36.5
2009-06-19 12:44:10 51°45.167 2°42.43 2.8 1.1 44 38.1
2009-06-19 12:45:10 51°45.179 2°42.454 1.5 1.2 50 39.1
2009-06-19 12:46:10 51°45.191 2°42.478 359.4 1 53 39.1
2009-06-19 12:47:10 51°45.226 2°42.508 23.9 4.5 28 36.8
2009-06-19 12:48:10 51°45.251 2°42.637 117.7 6.1 117 40.3
2009-06-19 12:49:10 51°45.154 2°42.805 136.2 10.6 132 37.2
2009-06-19 12:50:10 51°45.031 2°43.036 135.8 11.5 133 34
2009-06-19 12:51:10 51°44.9 2°43.259 138.7 11.3 138 38.5
2009-06-19 12:52:10 51°44.765 2°43.481 138.7 11.7 132 40.6
2009-06-19 12:53:10 51°44.63 2°43.698 139.4 11.5 131 40.8
2009-06-19 12:54:10 51°44.494 2°43.913 140.5 11.7 132 39
2009-06-19 12:55:10 51°44.361 2°44.126 141.9 11 132 36.4
2009-06-19 12:56:10 51°44.23 2°44.335 139.7 11 139 37.9
2009-06-19 12:57:10 51°44.102 2°44.545 138.4 11.1 137 33.8
2009-06-19 12:58:10 51°43.973 2°44.757 138.6 11.2 133 35.5
2009-06-19 12:59:10 51°43.841 2°44.963 138.4 11.1 134 36.6
2009-06-19 13:00:10 51°43.707 2°45.168 140.3 11 137 33.8
2009-06-19 13:01:10 51°43.575 2°45.373 142 10.9 136 34.6
2009-06-19 13:02:10 51°43.445 2°45.578 139.4 11.2 134 36.7
2009-06-19 13:03:10 51°43.314 2°45.781 137.3 10.7 141 33.8
2009-06-19 13:04:10 51°43.183 2°45.981 138.7 11 137 36
2009-06-19 13:05:10 51°43.052 2°46.188 138.9 10.9 137 36.5
2009-06-19 13:06:10 51°42.919 2°46.394 140.7 11.1 134 35
2009-06-19 13:07:10 51°42.783 2°46.593 140.2 11.1 142 37.3
2009-06-19 13:08:10 51°42.651 2°46.799 140.1 11.2 135 39
2009-06-19 13:09:10 51°42.516 2°47.001 138.3 11.1 140 34.9
2009-06-19 13:10:10 51°42.382 2°47.203 140.1 11 140 34.6
2009-06-19 13:11:10 51°42.249 2°47.408 138.1 11.1 134 31
2009-06-19 13:12:10 51°42.112 2°47.609 140 11.2 134 33.5
2009-06-19 13:13:10 51°41.974 2°47.809 139.1 11.3 136 33.6
2009-06-19 13:14:10 51°41.838 2°48.01 140 11.2 140 27.5
2009-06-19 13:15:10 51°41.701 2°48.209 140.1 11 142 28.6
2009-06-19 13:16:10 51°41.566 2°48.407 140.6 11 136 28.3
2009-06-19 13:17:10 51°41.427 2°48.603 139.7 11.1 145 27.1
2009-06-19 13:18:10 51°41.289 2°48.798 139.9 11 142 26.8
2009-06-19 13:19:10 51°41.152 2°48.998 139.2 11.2 136 24.1
2009-06-19 13:20:10 51°41.013 2°49.196 139.3 11.3 135 23.9
2009-06-19 13:21:10 51°40.874 2°49.393 140.1 11.2 143 31.1
2009-06-19 13:22:10 51°40.733 2°49.596 138.5 11.5 139 34.4
2009-06-19 13:23:10 51°40.59 2°49.798 139.4 11.4 141 35.3
2009-06-19 13:24:10 51°40.449 2°50.004 138.7 11.3 140 38.5
2009-06-19 13:25:10 51°40.311 2°50.202 139 10.9 144 37.4
2009-06-19 13:26:10 51°40.173 2°50.402 137.6 11.2 138 38.1
2009-06-19 13:27:10 51°40.034 2°50.606 138.3 11.3 142 34
2009-06-19 13:28:10 51°39.9 2°50.813 137.3 11.1 135 38.8
2009-06-19 13:29:10 51°39.765 2°51.016 137.3 11.3 137 36.7
2009-06-19 13:30:10 51°39.63 2°51.224 133.1 11.1 136 30.7
2009-06-19 13:31:10 51°39.502 2°51.451 133 11.5 131 32.6
2009-06-19 13:32:10 51°39.376 2°51.684 130.8 11.7 132 33.9
2009-06-19 13:33:10 51°39.251 2°51.917 132.1 11.6 132 33.9
2009-06-19 13:34:10 51°39.127 2°52.152 130.9 11.3 132 31.8
2009-06-19 13:35:11 51°38.998 2°52.378 134.7 11.5 131 34.2
2009-06-19 13:36:10 51°38.875 2°52.601 133.5 11.5 137 28.1
2009-06-19 13:37:10 51°38.75 2°52.833 134.4 11.4 132 34.9
2009-06-19 13:38:10 51°38.625 2°53.063 130.6 11.5 127 33.6
2009-06-19 13:39:10 51°38.499 2°53.285 133 11.2 138 31.4
2009-06-19 13:40:10 51°38.377 2°53.511 130.7 11.3 131 33.1
2009-06-19 13:41:10 51°38.251 2°53.734 132.5 11.2 138 31.2
2009-06-19 13:42:10 51°38.125 2°53.958 131.5 11.2 130 30.5
2009-06-19 13:43:10 51°37.996 2°54.18 132.6 11.4 128 29.3
2009-06-19 13:44:10 51°37.867 2°54.401 133.4 11.5 134 25.4
2009-06-19 13:45:10 51°37.74 2°54.626 134.4 11.4 135 22.7
2009-06-19 13:46:10 51°37.617 2°54.85 133.1 11.3 133 21.9
2009-06-19 13:47:10 51°37.492 2°55.076 132.9 11.4 134 21.2
2009-06-19 13:48:10 51°37.367 2°55.308 129.9 11.5 123 22
2009-06-19 13:49:10 51°37.244 2°55.54 130.5 11.4 133 22
2009-06-19 13:50:10 51°37.119 2°55.772 132 11.5 130 23.4
2009-06-19 13:51:10 51°36.994 2°56.006 133.9 11.6 132 28.1
2009-06-19 13:52:10 51°36.867 2°56.239 133.6 11.6 132 31.5
2009-06-19 13:53:10 51°36.742 2°56.475 132.2 11.6 130 35.7
2009-06-19 13:54:10 51°36.615 2°56.708 133.5 11.7 130 34.7
2009-06-19 13:55:10 51°36.488 2°56.942 131.8 11.7 128 34.7
2009-06-19 13:56:10 51°36.36 2°57.174 131.7 11.5 132 35.8
2009-06-19 13:57:10 51°36.234 2°57.4 133.6 11.5 129 31.4
2009-06-19 13:58:10 51°36.106 2°57.626 134.4 11.5 133 38
2009-06-19 13:59:10 51°35.978 2°57.851 133.6 11.3 136 34.3
2009-06-19 14:00:10 51°35.853 2°58.079 131.8 11.6 128 35.1
2009-06-19 14:01:10 51°35.725 2°58.308 134 11.6 132 37.1
2009-06-19 14:02:10 51°35.596 2°58.536 130.1 11.5 131 35
2009-06-19 14:03:10 51°35.473 2°58.767 130 11.5 125 32
2009-06-19 14:04:10 51°35.35 2°58.999 132.9 11.3 131 26.7
2009-06-19 14:05:10 51°35.223 2°59.223 134.5 11.4 137 29.3
2009-06-19 14:06:10 51°35.079 2°59.416 141.5 11.4 140 30
2009-06-19 14:07:10 51°34.93 2°59.602 140.9 11.3 142 28.7
2009-06-19 14:08:10 51°34.788 2°59.781 142.6 9.8 141 26.2
2009-06-19 14:09:10 51°34.682 2°59.924 141.2 7.7 140 24.2
2009-06-19 14:10:10 51°34.584 3°0.045 141.8 7.2 138 21.3
2009-06-19 14:11:10 51°34.567 3°0.163 71.2 3.7 63 21.4
2009-06-19 14:12:10 51°34.594 3°0.204 29.6 1.7 26 20.4
2009-06-19 14:13:10 51°34.614 3°0.217 12.4 0.9 18 19
2009-06-19 14:14:10 51°34.625 3°0.226 3.3 0.6 30 20.3
2009-06-19 14:15:10 51°34.631 3°0.232 355.8 0.3 42 21.2
2009-06-19 14:16:10 51°34.633 3°0.242 356.5 0.3 87 21.1
2009-06-19 14:17:10 51°34.635 3°0.254 359.5 0.4 87 21.1
2009-06-19 14:18:10 51°34.634 3°0.264 4.4 0.4 98 20.9
2009-06-19 14:19:10 51°34.642 3°0.278 23.3 1.7 30 20.4
2009-06-19 14:20:10 51°34.671 3°0.333 78.2 3.2 78 20.9
2009-06-19 14:21:10 51°34.645 3°0.4 153.7 3.2 157 19.6
2009-06-19 14:22:10 51°34.574 3°0.403 183.5 7.6 185 19.9
2009-06-19 14:23:10 51°34.41 3°0.337 196.1 10.9 194 17.5
2009-06-19 14:24:10 51°34.233 3°0.246 197.4 11.3 194 15.5
2009-06-19 14:25:10 51°34.055 3°0.149 196.4 11.2 201 13.7
2009-06-19 14:26:10 51°33.878 3°0.047 199 11.2 199 13.3
2009-06-19 14:27:10 51°33.7 2°59.945 197.5 11.4 200 12.9
2009-06-19 14:28:10 51°33.524 2°59.842 198.2 11.2 197 9.5
2009-06-19 14:29:10 51°33.346 2°59.737 196.1 11.3 200 12.9
2009-06-19 14:30:10 51°33.166 2°59.634 199.4 11.5 200 17.6
2009-06-19 14:31:10 51°32.984 2°59.536 199.9 11.7 200 28.7
2009-06-19 14:32:10 51°32.798 2°59.442 196.8 11.7 199 29.7
2009-06-19 14:33:10 51°32.612 2°59.355 197.5 11.7 195 32.5
2009-06-19 14:34:10 51°32.425 2°59.27 196 11.8 197 35.5
2009-06-19 14:35:10 51°32.238 2°59.181 195.7 11.8 196 33.6
2009-06-19 14:36:11 51°32.049 2°59.092 196.4 11.6 197 32.1
2009-06-19 14:37:10 51°31.865 2°59.007 196.4 11.7 197 29.6
2009-06-19 14:38:10 51°31.676 2°58.915 196.3 11.9 201 29.3
2009-06-19 14:39:10 51°31.486 2°58.825 196.1 12.1 197 29.1
2009-06-19 14:40:10 51°31.292 2°58.74 194 12.1 195 27.7
2009-06-19 14:41:10 51°31.101 2°58.653 195.6 12 199 27.9
2009-06-19 14:42:10 51°30.911 2°58.562 196.5 12 199 27.3
2009-06-19 14:43:10 51°30.72 2°58.472 194.2 12 197 27.6
2009-06-19 14:44:10 51°30.529 2°58.382 194.5 12 198 27.3
2009-06-19 14:45:10 51°30.339 2°58.293 194.6 12.1 199 27.8
2009-06-19 14:46:10 51°30.149 2°58.201 195.6 12.1 198 26.8
2009-06-19 14:47:10 51°29.958 2°58.109 195.9 11.9 199 25.8
2009-06-19 14:48:10 51°29.77 2°58.017 195.4 11.8 195 24.7
2009-06-19 14:49:10 51°29.582 2°57.926 195.6 11.9 197 22.8
2009-06-19 14:50:10 51°29.394 2°57.834 194.7 11.8 195 24.1
2009-06-19 14:51:10 51°29.208 2°57.742 194.8 11.8 195 24.4
2009-06-19 14:52:11 51°29.018 2°57.654 192.9 11.6 193 26.3
2009-06-19 14:53:10 51°28.833 2°57.573 193.5 11.6 193 27.3
2009-06-19 14:54:10 51°28.643 2°57.491 193 11.8 193 28.3
2009-06-19 14:55:10 51°28.451 2°57.403 192.8 12.1 197 27.6
2009-06-19 14:56:10 51°28.258 2°57.319 192.4 12 196 27.7
2009-06-19 14:57:11 51°28.063 2°57.233 192.7 12 194 28
2009-06-19 14:58:10 51°27.872 2°57.15 192.5 12.1 195 28.1
2009-06-19 14:59:10 51°27.677 2°57.066 194 12 193 27.5
2009-06-19 15:00:10 51°27.483 2°56.981 193.3 12.2 196 25.9
2009-06-19 15:01:10 51°27.29 2°56.897 193.1 12.2 196 22.5
2009-06-19 15:02:10 51°27.095 2°56.811 192.8 12.2 195 19.5
2009-06-19 15:03:10 51°26.905 2°56.728 193 11.6 194 20.2
2009-06-19 15:04:11 51°26.715 2°56.64 193 11.8 195 20.5
2009-06-19 15:05:10 51°26.53 2°56.557 194.1 11.7 196 18.9
2009-06-19 15:06:11 51°26.338 2°56.472 193.1 11.9 195 16.5
2009-06-19 15:07:10 51°26.15 2°56.385 194.4 11.9 195 16.5
2009-06-19 15:08:10 51°25.958 2°56.301 192.5 12.1 195 17
2009-06-19 15:09:10 51°25.766 2°56.213 193.9 11.9 195 16.4
2009-06-19 15:10:10 51°25.575 2°56.126 192.6 11.8 192 16
2009-06-19 15:11:10 51°25.384 2°56.035 193 12.1 199 17.1
2009-06-19 15:12:10 51°25.191 2°55.945 193.5 12.2 196 20.3
2009-06-19 15:13:10 51°24.997 2°55.853 194.1 12.1 197 22.8
2009-06-19 15:14:10 51°24.802 2°55.761 192.5 12.3 198 23.2
2009-06-19 15:15:11 51°24.604 2°55.669 194.2 12.1 197 23.7
2009-06-19 15:16:10 51°24.413 2°55.578 194.4 11.9 196 23.1
2009-06-19 15:17:11 51°24.216 2°55.484 192.7 12.2 199 21.4
2009-06-19 15:18:10 51°24.024 2°55.394 193.5 12.3 196 20.3
2009-06-19 15:19:10 51°23.827 2°55.305 193.4 12.2 194 19.8
2009-06-19 15:20:10 51°23.63 2°55.218 193 12.2 194 19.5
2009-06-19 15:21:10 51°23.434 2°55.13 193.7 12.3 195 17.3
2009-06-19 15:22:10 51°23.236 2°55.042 194.1 12.3 195 17.1
2009-06-19 15:23:10 51°23.04 2°54.952 194.2 12.1 195 18.5
2009-06-19 15:24:10 51°22.846 2°54.862 193.7 12.1 197 18.9
2009-06-19 15:25:10 51°22.652 2°54.771 194.5 12 197 19.3
2009-06-19 15:26:10 51°22.457 2°54.694 188.7 12 191 18.6
2009-06-19 15:27:10 51°22.261 2°54.635 187.1 12.1 193 17.7
2009-06-19 15:28:10 51°22.063 2°54.575 186.5 12.2 191 18.1
2009-06-19 15:29:10 51°21.865 2°54.52 187.5 12 188 16.7
2009-06-19 15:30:10 51°21.668 2°54.458 188.2 12.2 191 16.5
2009-06-19 15:31:10 51°21.47 2°54.396 186.8 12.3 189 16.2
2009-06-19 15:32:10 51°21.27 2°54.333 187.4 12.4 193 16.5
2009-06-19 15:33:10 51°21.069 2°54.271 186.2 12.3 195 16.1
2009-06-19 15:34:10 51°20.869 2°54.206 188.2 12.3 192 16.2
2009-06-19 15:35:10 51°20.669 2°54.145 186.4 12.1 192 15.8
2009-06-19 15:36:10 51°20.469 2°54.087 186.8 12.3 193 15.3
2009-06-19 15:37:10 51°20.269 2°54.026 189.7 12.3 194 15.1
2009-06-19 15:38:11 51°20.068 2°53.939 193.4 12.2 196 14.3
2009-06-19 15:39:10 51°19.874 2°53.853 192.6 12.3 199 13.1
2009-06-19 15:40:10 51°19.679 2°53.765 194.4 12 193 12.7
2009-06-19 15:41:10 51°19.484 2°53.675 193.6 12.3 195 12.4
2009-06-19 15:42:11 51°19.284 2°53.586 193.2 12.3 196 11.7
2009-06-19 15:43:10 51°19.092 2°53.499 193.5 12.2 195 11.5
2009-06-19 15:44:10 51°18.895 2°53.411 193.7 12.4 196 11.2
2009-06-19 15:45:10 51°18.7 2°53.319 194.2 12.4 196 11
2009-06-19 15:46:11 51°18.499 2°53.223 194 12.3 196 10.7
2009-06-19 15:47:10 51°18.306 2°53.132 194.5 12.5 197 10.2
2009-06-19 15:48:10 51°18.108 2°53.039 193.2 12.5 195 9.9
2009-06-19 15:49:11 51°17.907 2°52.944 194.9 12.5 197 10
2009-06-19 15:50:10 51°17.712 2°52.853 194.6 12.5 197 9.7
2009-06-19 15:51:11 51°17.51 2°52.761 194.5 12.3 193 9.7
2009-06-19 15:52:10 51°17.314 2°52.67 194.4 12.4 193 9.5
2009-06-19 15:53:10 51°17.116 2°52.584 192.8 12.1 192 9.2
2009-06-19 15:54:11 51°16.912 2°52.567 171.4 12.2 175 9.5
2009-06-19 15:55:10 51°16.722 2°52.643 157.6 12.1 163 9.7
2009-06-19 15:56:10 51°16.534 2°52.747 158.3 11.8 161 11.2
2009-06-19 15:57:10 51°16.346 2°52.836 158.6 11.8 162 11.9
2009-06-19 15:58:11 51°16.154 2°52.929 159.2 11.8 162 11.4
2009-06-19 15:59:10 51°15.972 2°53.027 155.1 11.5 154 11.2
2009-06-19 16:00:10 51°15.792 2°53.143 152.5 11.5 157 11.2
2009-06-19 16:01:11 51°15.609 2°53.261 152.1 11.7 157 10.4
2009-06-19 16:02:11 51°15.433 2°53.388 149.9 11.7 155 9.8
2009-06-19 16:03:11 51°15.275 2°53.507 149.2 8.1 156 9.5
2009-06-19 16:04:10 51°15.181 2°53.565 153.2 4.9 159 9.6
2009-06-19 16:05:11 51°15.122 2°53.628 122.8 3.9 133 9.5
2009-06-19 16:06:10 51°15.074 2°53.708 123.5 4.7 133 9.6
2009-06-19 16:07:11 51°15.017 2°53.812 121 5.2 129 9.5
2009-06-19 16:08:10 51°14.963 2°53.913 120.7 4.9 128 9
2009-06-19 16:09:10 51°14.914 2°54.006 121.6 4.4 131 9.3
2009-06-19 16:10:11 51°14.864 2°54.098 122.6 4.9 127 9.1
2009-06-19 16:11:11 51°14.83 2°54.229 102.8 5.4 108 9.5
2009-06-19 16:12:11 51°14.803 2°54.364 101.5 5.3 105 9.6
2009-06-19 16:13:10 51°14.78 2°54.506 99.4 6.8 112 9.5
2009-06-19 16:14:11 51°14.673 2°54.675 138.3 10.8 144 9.6
2009-06-19 16:15:10 51°14.518 2°54.843 140.3 11.7 145 9.7
2009-06-19 16:16:11 51°14.374 2°55.051 132 11.6 133 9.8
2009-06-19 16:17:10 51°14.255 2°55.266 136.5 9.6 137 10.1
2009-06-19 16:18:11 51°14.132 2°55.404 153.4 8.4 153 10.1
2009-06-19 16:19:11 51°14.01 2°55.497 155.6 7.8 154 9.7
2009-06-19 16:20:10 51°13.887 2°55.586 156.9 8.4 155 10.2
2009-06-19 16:21:11 51°13.769 2°55.7 140.5 7.4 138 9.4
2009-06-19 16:22:11 51°13.7 2°55.823 128.1 5.5 124 8.2
2009-06-19 16:23:14 51°13.67 2°55.927 112.4 2.9 108 -999
2009-06-19 16:24:14 51°13.661 2°55.958 126.2 0.2 110 -999